sensor_id;sensor_type;location;lat;lon;timestamp;temperature;humidity
43143;DHT22;28750;59.842;17.584;2023-09-19T00:00:31;15.50;99.90
43143;DHT22;28750;59.842;17.584;2023-09-19T00:02:59;15.60;99.90
43143;DHT22;28750;59.842;17.584;2023-09-19T00:05:30;15.70;99.90
43143;DHT22;28750;59.842;17.584;2023-09-19T00:08:01;15.60;99.90
43143;DHT22;28750;59.842;17.584;2023-09-19T00:10:30;15.60;99.90
43143;DHT22;28750;59.842;17.584;2023-09-19T00:13:02;15.60;99.90
43143;DHT22;28750;59.842;17.584;2023-09-19T00:15:36;15.70;99.90
43143;DHT22;28750;59.842;17.584;2023-09-19T00:18:04;15.70;99.90
43143;DHT22;28750;59.842;17.584;2023-09-19T00:20:32;15.70;99.90
43143;DHT22;28750;59.842;17.584;2023-09-19T00:23:00;15.70;99.90
43143;DHT22;28750;59.842;17.584;2023-09-19T00:25:37;15.80;99.90
43143;DHT22;28750;59.842;17.584;2023-09-19T00:28:05;15.80;99.90
43143;DHT22;28750;59.842;17.584;2023-09-19T00:30:33;15.90;99.90
43143;DHT22;28750;59.842;17.584;2023-09-19T00:33:01;15.90;99.90
43143;DHT22;28750;59.842;17.584;2023-09-19T00:35:31;15.80;99.90
43143;DHT22;28750;59.842;17.584;2023-09-19T00:37:58;15.90;99.90
43143;DHT22;28750;59.842;17.584;2023-09-19T00:40:26;15.90;99.90
43143;DHT22;28750;59.842;17.584;2023-09-19T00:42:57;16.00;99.90
43143;DHT22;28750;59.842;17.584;2023-09-19T00:45:25;16.00;99.90
43143;DHT22;28750;59.842;17.584;2023-09-19T00:47:53;16.00;99.90
43143;DHT22;28750;59.842;17.584;2023-09-19T00:50:24;16.00;99.90
43143;DHT22;28750;59.842;17.584;2023-09-19T00:52:54;16.10;99.90
43143;DHT22;28750;59.842;17.584;2023-09-19T00:55:24;16.10;99.90
43143;DHT22;28750;59.842;17.584;2023-09-19T00:57:52;16.10;99.90
43143;DHT22;28750;59.842;17.584;2023-09-19T01:00:20;16.30;99.90
43143;DHT22;28750;59.842;17.584;2023-09-19T01:02:47;16.30;99.90
43143;DHT22;28750;59.842;17.584;2023-09-19T01:05:15;16.20;99.90
43143;DHT22;28750;59.842;17.584;2023-09-19T01:07:43;16.20;99.90
43143;DHT22;28750;59.842;17.584;2023-09-19T01:10:15;16.30;99.90
43143;DHT22;28750;59.842;17.584;2023-09-19T01:23:59;16.40;99.90
43143;DHT22;28750;59.842;17.584;2023-09-19T01:29:42;16.40;99.90
43143;DHT22;28750;59.842;17.584;2023-09-19T01:32:11;16.40;99.90
43143;DHT22;28750;59.842;17.584;2023-09-19T01:34:48;16.40;99.90
43143;DHT22;28750;59.842;17.584;2023-09-19T01:37:20;16.40;99.90
43143;DHT22;28750;59.842;17.584;2023-09-19T01:39:56;16.40;99.90
43143;DHT22;28750;59.842;17.584;2023-09-19T01:42:50;16.50;99.90
43143;DHT22;28750;59.842;17.584;2023-09-19T01:51:01;16.60;99.90
43143;DHT22;28750;59.842;17.584;2023-09-19T01:53:55;16.50;99.90
43143;DHT22;28750;59.842;17.584;2023-09-19T01:56:59;16.50;99.90
43143;DHT22;28750;59.842;17.584;2023-09-19T01:59:35;16.60;99.90
43143;DHT22;28750;59.842;17.584;2023-09-19T02:02:06;16.60;99.90
43143;DHT22;28750;59.842;17.584;2023-09-19T02:04:35;16.70;99.90
43143;DHT22;28750;59.842;17.584;2023-09-19T02:07:02;16.70;99.90
43143;DHT22;28750;59.842;17.584;2023-09-19T02:09:31;16.70;99.90
43143;DHT22;28750;59.842;17.584;2023-09-19T02:12:01;16.70;99.90
43143;DHT22;28750;59.842;17.584;2023-09-19T02:14:30;16.70;99.90
43143;DHT22;28750;59.842;17.584;2023-09-19T02:16:58;16.70;99.90
43143;DHT22;28750;59.842;17.584;2023-09-19T02:19:26;16.60;99.90
43143;DHT22;28750;59.842;17.584;2023-09-19T02:21:53;16.60;99.90
43143;DHT22;28750;59.842;17.584;2023-09-19T02:24:21;16.70;99.90
43143;DHT22;28750;59.842;17.584;2023-09-19T02:26:52;16.70;99.90
43143;DHT22;28750;59.842;17.584;2023-09-19T02:29:20;16.80;99.90
43143;DHT22;28750;59.842;17.584;2023-09-19T02:31:47;16.70;99.90
43143;DHT22;28750;59.842;17.584;2023-09-19T02:34:15;16.80;99.90
43143;DHT22;28750;59.842;17.584;2023-09-19T02:36:43;16.80;99.90
43143;DHT22;28750;59.842;17.584;2023-09-19T02:39:10;16.80;99.90
43143;DHT22;28750;59.842;17.584;2023-09-19T02:41:38;16.80;99.90
43143;DHT22;28750;59.842;17.584;2023-09-19T02:44:07;16.80;99.90
43143;DHT22;28750;59.842;17.584;2023-09-19T02:46:35;16.80;99.90
43143;DHT22;28750;59.842;17.584;2023-09-19T02:49:03;16.80;99.90
43143;DHT22;28750;59.842;17.584;2023-09-19T02:51:32;16.90;99.90
43143;DHT22;28750;59.842;17.584;2023-09-19T02:54:00;16.90;99.90
43143;DHT22;28750;59.842;17.584;2023-09-19T02:56:28;16.90;99.90
43143;DHT22;28750;59.842;17.584;2023-09-19T02:58:56;16.90;99.90
43143;DHT22;28750;59.842;17.584;2023-09-19T03:01:23;16.90;99.90
43143;DHT22;28750;59.842;17.584;2023-09-19T03:03:50;16.90;99.90
43143;DHT22;28750;59.842;17.584;2023-09-19T03:06:19;17.10;99.90
43143;DHT22;28750;59.842;17.584;2023-09-19T03:08:47;17.00;99.90
43143;DHT22;28750;59.842;17.584;2023-09-19T03:11:15;17.10;99.90
43143;DHT22;28750;59.842;17.584;2023-09-19T03:13:44;17.00;99.90
43143;DHT22;28750;59.842;17.584;2023-09-19T03:16:11;17.10;99.90
43143;DHT22;28750;59.842;17.584;2023-09-19T03:18:40;17.10;99.90
43143;DHT22;28750;59.842;17.584;2023-09-19T03:21:07;17.10;99.90
43143;DHT22;28750;59.842;17.584;2023-09-19T03:23:35;17.20;99.90
43143;DHT22;28750;59.842;17.584;2023-09-19T03:26:04;17.20;99.90
43143;DHT22;28750;59.842;17.584;2023-09-19T03:28:33;17.20;99.90
43143;DHT22;28750;59.842;17.584;2023-09-19T03:31:05;17.20;99.90
43143;DHT22;28750;59.842;17.584;2023-09-19T03:33:33;17.30;99.90
43143;DHT22;28750;59.842;17.584;2023-09-19T03:36:03;17.30;99.90
43143;DHT22;28750;59.842;17.584;2023-09-19T03:38:32;17.30;99.90
43143;DHT22;28750;59.842;17.584;2023-09-19T03:41:00;17.40;99.90
43143;DHT22;28750;59.842;17.584;2023-09-19T03:43:27;17.30;99.90
43143;DHT22;28750;59.842;17.584;2023-09-19T03:45:54;17.30;99.90
43143;DHT22;28750;59.842;17.584;2023-09-19T03:48:21;17.40;99.90
43143;DHT22;28750;59.842;17.584;2023-09-19T03:50:49;17.50;99.90
43143;DHT22;28750;59.842;17.584;2023-09-19T03:53:16;17.50;99.90
43143;DHT22;28750;59.842;17.584;2023-09-19T03:55:45;17.60;99.90
43143;DHT22;28750;59.842;17.584;2023-09-19T03:58:13;17.60;99.90
43143;DHT22;28750;59.842;17.584;2023-09-19T04:00:40;17.60;99.90
43143;DHT22;28750;59.842;17.584;2023-09-19T04:03:07;17.60;99.90
43143;DHT22;28750;59.842;17.584;2023-09-19T04:05:36;17.60;99.90
43143;DHT22;28750;59.842;17.584;2023-09-19T04:08:03;17.60;99.90
43143;DHT22;28750;59.842;17.584;2023-09-19T04:10:31;17.70;99.90
43143;DHT22;28750;59.842;17.584;2023-09-19T04:12:58;17.70;99.90
43143;DHT22;28750;59.842;17.584;2023-09-19T04:15:25;17.70;99.90
43143;DHT22;28750;59.842;17.584;2023-09-19T04:17:53;17.70;99.90
43143;DHT22;28750;59.842;17.584;2023-09-19T04:20:20;17.70;99.90
43143;DHT22;28750;59.842;17.584;2023-09-19T04:22:48;17.70;99.90
43143;DHT22;28750;59.842;17.584;2023-09-19T04:25:16;17.80;99.90
43143;DHT22;28750;59.842;17.584;2023-09-19T04:27:44;17.70;99.90
43143;DHT22;28750;59.842;17.584;2023-09-19T04:30:11;17.80;99.90
43143;DHT22;28750;59.842;17.584;2023-09-19T04:32:41;17.80;99.90
43143;DHT22;28750;59.842;17.584;2023-09-19T04:35:09;17.80;99.90
43143;DHT22;28750;59.842;17.584;2023-09-19T04:37:38;17.80;99.90
43143;DHT22;28750;59.842;17.584;2023-09-19T04:40:08;17.80;99.90
43143;DHT22;28750;59.842;17.584;2023-09-19T04:42:39;17.80;99.90
43143;DHT22;28750;59.842;17.584;2023-09-19T04:45:07;17.80;99.90
43143;DHT22;28750;59.842;17.584;2023-09-19T04:47:37;17.80;99.90
43143;DHT22;28750;59.842;17.584;2023-09-19T04:50:06;17.80;99.90
43143;DHT22;28750;59.842;17.584;2023-09-19T04:52:41;17.80;99.90
43143;DHT22;28750;59.842;17.584;2023-09-19T04:55:13;17.80;99.90
43143;DHT22;28750;59.842;17.584;2023-09-19T04:57:46;17.80;99.90
43143;DHT22;28750;59.842;17.584;2023-09-19T05:00:16;17.80;99.90
43143;DHT22;28750;59.842;17.584;2023-09-19T05:02:45;17.80;99.90
43143;DHT22;28750;59.842;17.584;2023-09-19T05:05:12;17.80;99.90
43143;DHT22;28750;59.842;17.584;2023-09-19T05:07:41;17.90;99.90
43143;DHT22;28750;59.842;17.584;2023-09-19T05:10:08;17.90;99.90
43143;DHT22;28750;59.842;17.584;2023-09-19T05:12:37;17.90;99.90
43143;DHT22;28750;59.842;17.584;2023-09-19T05:15:06;17.90;99.90
43143;DHT22;28750;59.842;17.584;2023-09-19T05:17:34;17.90;99.90
43143;DHT22;28750;59.842;17.584;2023-09-19T05:20:03;17.90;99.90
43143;DHT22;28750;59.842;17.584;2023-09-19T05:22:43;17.90;99.90
43143;DHT22;28750;59.842;17.584;2023-09-19T05:25:12;17.90;99.90
43143;DHT22;28750;59.842;17.584;2023-09-19T05:27:43;17.90;99.90
43143;DHT22;28750;59.842;17.584;2023-09-19T05:30:10;17.90;99.90
43143;DHT22;28750;59.842;17.584;2023-09-19T05:32:39;18.00;99.90
43143;DHT22;28750;59.842;17.584;2023-09-19T05:35:06;18.00;99.90
43143;DHT22;28750;59.842;17.584;2023-09-19T05:37:35;18.00;99.90
43143;DHT22;28750;59.842;17.584;2023-09-19T05:40:03;18.00;99.90
43143;DHT22;28750;59.842;17.584;2023-09-19T05:42:35;18.00;99.90
43143;DHT22;28750;59.842;17.584;2023-09-19T05:45:03;18.00;99.90
43143;DHT22;28750;59.842;17.584;2023-09-19T05:47:32;18.00;99.90
43143;DHT22;28750;59.842;17.584;2023-09-19T05:50:00;18.00;99.90
43143;DHT22;28750;59.842;17.584;2023-09-19T05:52:28;18.00;99.90
43143;DHT22;28750;59.842;17.584;2023-09-19T05:54:55;18.10;99.90
43143;DHT22;28750;59.842;17.584;2023-09-19T05:57:23;18.10;99.90
43143;DHT22;28750;59.842;17.584;2023-09-19T05:59:50;18.10;99.90
43143;DHT22;28750;59.842;17.584;2023-09-19T06:02:17;18.10;99.90
43143;DHT22;28750;59.842;17.584;2023-09-19T06:04:45;18.10;99.90
43143;DHT22;28750;59.842;17.584;2023-09-19T06:07:12;18.10;99.90
43143;DHT22;28750;59.842;17.584;2023-09-19T06:09:40;18.20;99.90
43143;DHT22;28750;59.842;17.584;2023-09-19T06:12:07;18.20;99.90
43143;DHT22;28750;59.842;17.584;2023-09-19T06:14:35;18.20;99.90
43143;DHT22;28750;59.842;17.584;2023-09-19T06:17:02;18.20;99.90
43143;DHT22;28750;59.842;17.584;2023-09-19T06:19:29;18.20;99.90
43143;DHT22;28750;59.842;17.584;2023-09-19T06:21:56;18.20;99.90
43143;DHT22;28750;59.842;17.584;2023-09-19T06:24:25;18.30;99.90
43143;DHT22;28750;59.842;17.584;2023-09-19T06:26:52;18.30;99.90
43143;DHT22;28750;59.842;17.584;2023-09-19T06:29:20;18.30;99.90
43143;DHT22;28750;59.842;17.584;2023-09-19T06:31:48;18.30;99.90
43143;DHT22;28750;59.842;17.584;2023-09-19T06:34:16;18.30;99.90
43143;DHT22;28750;59.842;17.584;2023-09-19T06:36:44;18.40;99.90
43143;DHT22;28750;59.842;17.584;2023-09-19T06:39:11;18.30;99.90
43143;DHT22;28750;59.842;17.584;2023-09-19T06:41:39;18.30;99.90
43143;DHT22;28750;59.842;17.584;2023-09-19T06:44:07;18.30;99.90
43143;DHT22;28750;59.842;17.584;2023-09-19T06:46:35;18.20;99.90
43143;DHT22;28750;59.842;17.584;2023-09-19T06:49:04;18.30;99.90
43143;DHT22;28750;59.842;17.584;2023-09-19T06:51:32;18.30;99.90
43143;DHT22;28750;59.842;17.584;2023-09-19T06:54:02;18.30;99.90
43143;DHT22;28750;59.842;17.584;2023-09-19T06:56:30;18.30;99.90
43143;DHT22;28750;59.842;17.584;2023-09-19T06:58:58;18.30;99.90
43143;DHT22;28750;59.842;17.584;2023-09-19T07:01:26;18.30;99.90
43143;DHT22;28750;59.842;17.584;2023-09-19T07:03:53;18.30;99.90
43143;DHT22;28750;59.842;17.584;2023-09-19T07:06:20;18.40;99.90
43143;DHT22;28750;59.842;17.584;2023-09-19T07:08:47;18.40;99.90
43143;DHT22;28750;59.842;17.584;2023-09-19T07:11:16;18.40;99.90
43143;DHT22;28750;59.842;17.584;2023-09-19T07:13:43;18.40;99.90
43143;DHT22;28750;59.842;17.584;2023-09-19T07:16:10;18.30;99.90
43143;DHT22;28750;59.842;17.584;2023-09-19T07:18:44;18.40;99.90
43143;DHT22;28750;59.842;17.584;2023-09-19T07:21:11;18.40;99.90
43143;DHT22;28750;59.842;17.584;2023-09-19T07:23:41;18.40;99.90
43143;DHT22;28750;59.842;17.584;2023-09-19T07:26:08;18.30;99.90
43143;DHT22;28750;59.842;17.584;2023-09-19T07:28:35;18.30;99.90
43143;DHT22;28750;59.842;17.584;2023-09-19T07:31:03;18.30;99.90
43143;DHT22;28750;59.842;17.584;2023-09-19T07:33:30;18.40;99.90
43143;DHT22;28750;59.842;17.584;2023-09-19T07:35:57;18.40;99.90
43143;DHT22;28750;59.842;17.584;2023-09-19T07:38:25;18.40;99.90
43143;DHT22;28750;59.842;17.584;2023-09-19T07:40:52;18.50;99.90
43143;DHT22;28750;59.842;17.584;2023-09-19T07:43:20;18.50;99.90
43143;DHT22;28750;59.842;17.584;2023-09-19T07:45:48;18.60;99.90
43143;DHT22;28750;59.842;17.584;2023-09-19T07:48:15;18.60;99.90
43143;DHT22;28750;59.842;17.584;2023-09-19T07:50:42;18.60;99.90
43143;DHT22;28750;59.842;17.584;2023-09-19T07:53:10;18.60;99.90
43143;DHT22;28750;59.842;17.584;2023-09-19T07:55:39;18.60;99.90
43143;DHT22;28750;59.842;17.584;2023-09-19T07:58:07;18.60;99.90
43143;DHT22;28750;59.842;17.584;2023-09-19T08:00:34;18.60;99.90
43143;DHT22;28750;59.842;17.584;2023-09-19T08:03:01;18.60;99.90
43143;DHT22;28750;59.842;17.584;2023-09-19T08:05:29;18.60;99.90
43143;DHT22;28750;59.842;17.584;2023-09-19T08:07:56;18.50;99.90
43143;DHT22;28750;59.842;17.584;2023-09-19T08:10:24;18.50;99.90
43143;DHT22;28750;59.842;17.584;2023-09-19T08:12:53;18.60;99.90
43143;DHT22;28750;59.842;17.584;2023-09-19T08:15:23;18.60;99.90
43143;DHT22;28750;59.842;17.584;2023-09-19T08:17:50;18.70;99.90
43143;DHT22;28750;59.842;17.584;2023-09-19T08:20:18;18.70;99.90
43143;DHT22;28750;59.842;17.584;2023-09-19T08:22:49;18.70;99.90
43143;DHT22;28750;59.842;17.584;2023-09-19T08:25:18;18.70;99.90
43143;DHT22;28750;59.842;17.584;2023-09-19T08:27:46;18.70;99.90
43143;DHT22;28750;59.842;17.584;2023-09-19T08:30:16;18.70;99.90
43143;DHT22;28750;59.842;17.584;2023-09-19T08:32:45;18.70;99.90
43143;DHT22;28750;59.842;17.584;2023-09-19T08:35:13;18.60;99.90
43143;DHT22;28750;59.842;17.584;2023-09-19T08:37:41;18.60;99.90
43143;DHT22;28750;59.842;17.584;2023-09-19T08:40:11;18.70;99.90
43143;DHT22;28750;59.842;17.584;2023-09-19T08:42:53;18.60;99.90
43143;DHT22;28750;59.842;17.584;2023-09-19T08:45:21;18.60;99.90
43143;DHT22;28750;59.842;17.584;2023-09-19T08:51:03;18.60;99.90
43143;DHT22;28750;59.842;17.584;2023-09-19T08:54:06;18.60;99.90
43143;DHT22;28750;59.842;17.584;2023-09-19T08:56:35;18.70;99.90
43143;DHT22;28750;59.842;17.584;2023-09-19T08:59:06;18.80;99.90
43143;DHT22;28750;59.842;17.584;2023-09-19T09:01:33;18.90;99.90
43143;DHT22;28750;59.842;17.584;2023-09-19T09:04:02;18.90;99.90
43143;DHT22;28750;59.842;17.584;2023-09-19T09:06:29;19.10;99.90
43143;DHT22;28750;59.842;17.584;2023-09-19T09:08:58;19.10;99.90
43143;DHT22;28750;59.842;17.584;2023-09-19T09:11:26;19.10;99.90
43143;DHT22;28750;59.842;17.584;2023-09-19T09:13:53;19.30;99.90
43143;DHT22;28750;59.842;17.584;2023-09-19T09:16:21;19.40;99.90
43143;DHT22;28750;59.842;17.584;2023-09-19T09:18:52;19.30;99.90
43143;DHT22;28750;59.842;17.584;2023-09-19T09:21:21;19.40;99.90
43143;DHT22;28750;59.842;17.584;2023-09-19T09:23:51;19.40;99.90
43143;DHT22;28750;59.842;17.584;2023-09-19T09:26:40;19.30;99.90
43143;DHT22;28750;59.842;17.584;2023-09-19T09:29:08;19.30;99.90
43143;DHT22;28750;59.842;17.584;2023-09-19T09:31:35;19.20;99.90
43143;DHT22;28750;59.842;17.584;2023-09-19T09:34:02;19.20;99.90
43143;DHT22;28750;59.842;17.584;2023-09-19T09:36:39;19.10;99.90
43143;DHT22;28750;59.842;17.584;2023-09-19T09:39:07;19.10;99.90
43143;DHT22;28750;59.842;17.584;2023-09-19T09:41:44;19.20;99.90
43143;DHT22;28750;59.842;17.584;2023-09-19T09:44:16;19.20;99.90
43143;DHT22;28750;59.842;17.584;2023-09-19T09:46:45;19.20;99.90
43143;DHT22;28750;59.842;17.584;2023-09-19T09:49:47;19.30;99.90
43143;DHT22;28750;59.842;17.584;2023-09-19T09:52:20;19.30;99.90
43143;DHT22;28750;59.842;17.584;2023-09-19T09:55:00;19.40;99.90
43143;DHT22;28750;59.842;17.584;2023-09-19T09:57:31;19.40;99.90
43143;DHT22;28750;59.842;17.584;2023-09-19T10:00:00;19.40;99.90
43143;DHT22;28750;59.842;17.584;2023-09-19T10:02:45;19.40;99.90
43143;DHT22;28750;59.842;17.584;2023-09-19T10:05:17;19.40;99.90
43143;DHT22;28750;59.842;17.584;2023-09-19T10:07:54;19.30;99.90
43143;DHT22;28750;59.842;17.584;2023-09-19T10:10:39;19.20;99.90
43143;DHT22;28750;59.842;17.584;2023-09-19T10:13:20;19.20;99.90
43143;DHT22;28750;59.842;17.584;2023-09-19T10:15:51;19.30;99.90
43143;DHT22;28750;59.842;17.584;2023-09-19T10:18:22;19.40;99.90
43143;DHT22;28750;59.842;17.584;2023-09-19T10:20:49;19.70;99.90
43143;DHT22;28750;59.842;17.584;2023-09-19T10:23:18;19.70;99.90
43143;DHT22;28750;59.842;17.584;2023-09-19T10:25:49;19.70;99.90
43143;DHT22;28750;59.842;17.584;2023-09-19T10:28:18;19.70;99.90
43143;DHT22;28750;59.842;17.584;2023-09-19T10:30:51;19.80;99.90
43143;DHT22;28750;59.842;17.584;2023-09-19T10:33:21;19.90;99.90
43143;DHT22;28750;59.842;17.584;2023-09-19T10:35:51;20.00;99.90
43143;DHT22;28750;59.842;17.584;2023-09-19T10:38:23;20.00;99.90
43143;DHT22;28750;59.842;17.584;2023-09-19T10:40:50;20.10;99.90
43143;DHT22;28750;59.842;17.584;2023-09-19T10:43:24;19.80;99.90
43143;DHT22;28750;59.842;17.584;2023-09-19T10:45:54;19.60;99.90
43143;DHT22;28750;59.842;17.584;2023-09-19T10:48:24;19.70;99.90
43143;DHT22;28750;59.842;17.584;2023-09-19T10:51:11;19.90;99.90
43143;DHT22;28750;59.842;17.584;2023-09-19T10:53:57;20.50;99.90
43143;DHT22;28750;59.842;17.584;2023-09-19T10:56:36;21.40;48.30
43143;DHT22;28750;59.842;17.584;2023-09-19T10:59:18;21.50;1.00
43143;DHT22;28750;59.842;17.584;2023-09-19T11:01:48;20.80;99.90
43143;DHT22;28750;59.842;17.584;2023-09-19T11:04:37;20.30;99.90
43143;DHT22;28750;59.842;17.584;2023-09-19T11:07:10;19.80;51.90
43143;DHT22;28750;59.842;17.584;2023-09-19T11:09:48;19.50;99.90
43143;DHT22;28750;59.842;17.584;2023-09-19T11:14:58;19.00;99.90
43143;DHT22;28750;59.842;17.584;2023-09-19T11:30:39;20.10;1.00
43143;DHT22;28750;59.842;17.584;2023-09-19T11:33:25;20.40;3.70
43143;DHT22;28750;59.842;17.584;2023-09-19T11:36:08;19.50;1.00
43143;DHT22;28750;59.842;17.584;2023-09-19T11:44:38;19.60;99.90
43143;DHT22;28750;59.842;17.584;2023-09-19T11:49:23;18.90;99.90
43143;DHT22;28750;59.842;17.584;2023-09-19T11:51:56;19.60;99.90
43143;DHT22;28750;59.842;17.584;2023-09-19T11:54:23;19.20;60.20
43143;DHT22;28750;59.842;17.584;2023-09-19T11:56:54;18.80;99.90
43143;DHT22;28750;59.842;17.584;2023-09-19T11:59:23;18.60;99.90
43143;DHT22;28750;59.842;17.584;2023-09-19T12:02:01;18.70;99.90
43143;DHT22;28750;59.842;17.584;2023-09-19T12:04:38;18.90;46.40
43143;DHT22;28750;59.842;17.584;2023-09-19T12:07:16;19.80;61.70
43143;DHT22;28750;59.842;17.584;2023-09-19T12:10:03;20.20;99.90
43143;DHT22;28750;59.842;17.584;2023-09-19T12:12:31;19.50;99.90
43143;DHT22;28750;59.842;17.584;2023-09-19T12:14:59;19.40;99.90
43143;DHT22;28750;59.842;17.584;2023-09-19T12:17:36;19.30;1.00
43143;DHT22;28750;59.842;17.584;2023-09-19T12:20:05;19.00;1.00
43143;DHT22;28750;59.842;17.584;2023-09-19T12:22:41;18.60;99.90
43143;DHT22;28750;59.842;17.584;2023-09-19T12:25:09;18.50;99.90
43143;DHT22;28750;59.842;17.584;2023-09-19T12:27:47;18.50;99.90
43143;DHT22;28750;59.842;17.584;2023-09-19T12:30:16;18.50;99.90
43143;DHT22;28750;59.842;17.584;2023-09-19T12:32:44;18.80;99.90
43143;DHT22;28750;59.842;17.584;2023-09-19T12:35:31;19.00;99.90
43143;DHT22;28750;59.842;17.584;2023-09-19T12:38:00;19.10;22.70
43143;DHT22;28750;59.842;17.584;2023-09-19T12:40:30;19.70;99.90
43143;DHT22;28750;59.842;17.584;2023-09-19T12:42:59;20.30;99.90
43143;DHT22;28750;59.842;17.584;2023-09-19T12:45:29;19.90;2.80
43143;DHT22;28750;59.842;17.584;2023-09-19T12:48:19;19.80;99.90
43143;DHT22;28750;59.842;17.584;2023-09-19T12:53:43;19.70;99.90
43143;DHT22;28750;59.842;17.584;2023-09-19T12:56:15;19.60;99.90
43143;DHT22;28750;59.842;17.584;2023-09-19T12:58:58;19.10;99.90
43143;DHT22;28750;59.842;17.584;2023-09-19T13:01:29;18.70;99.90
43143;DHT22;28750;59.842;17.584;2023-09-19T13:04:20;18.40;1.00
43143;DHT22;28750;59.842;17.584;2023-09-19T13:06:52;18.40;99.90
43143;DHT22;28750;59.842;17.584;2023-09-19T13:09:22;18.30;99.90
43143;DHT22;28750;59.842;17.584;2023-09-19T13:11:50;18.40;99.90
43143;DHT22;28750;59.842;17.584;2023-09-19T13:14:26;18.50;46.10
43143;DHT22;28750;59.842;17.584;2023-09-19T13:19:41;18.30;1.00
43143;DHT22;28750;59.842;17.584;2023-09-19T13:22:40;18.20;1.00
43143;DHT22;28750;59.842;17.584;2023-09-19T13:25:16;18.10;99.90
43143;DHT22;28750;59.842;17.584;2023-09-19T13:27:46;18.00;99.90
43143;DHT22;28750;59.842;17.584;2023-09-19T13:30:18;18.00;99.90
43143;DHT22;28750;59.842;17.584;2023-09-19T13:32:45;18.10;99.90
43143;DHT22;28750;59.842;17.584;2023-09-19T13:35:13;18.00;99.90
43143;DHT22;28750;59.842;17.584;2023-09-19T13:37:42;17.90;99.90
43143;DHT22;28750;59.842;17.584;2023-09-19T13:40:12;17.70;45.40
43143;DHT22;28750;59.842;17.584;2023-09-19T13:42:40;17.00;99.90
43143;DHT22;28750;59.842;17.584;2023-09-19T13:45:08;16.00;1.00
43143;DHT22;28750;59.842;17.584;2023-09-19T13:47:37;15.60;99.90
43143;DHT22;28750;59.842;17.584;2023-09-19T13:50:05;15.50;1.00
43143;DHT22;28750;59.842;17.584;2023-09-19T13:52:33;15.50;99.90
43143;DHT22;28750;59.842;17.584;2023-09-19T13:55:00;15.40;99.90
43143;DHT22;28750;59.842;17.584;2023-09-19T13:57:27;15.50;1.00
43143;DHT22;28750;59.842;17.584;2023-09-19T13:59:55;15.00;1.00
43143;DHT22;28750;59.842;17.584;2023-09-19T14:02:23;14.80;99.90
43143;DHT22;28750;59.842;17.584;2023-09-19T14:04:51;14.60;1.00
43143;DHT22;28750;59.842;17.584;2023-09-19T14:07:18;14.30;8.60
43143;DHT22;28750;59.842;17.584;2023-09-19T14:09:46;14.20;99.90
43143;DHT22;28750;59.842;17.584;2023-09-19T14:12:14;14.20;99.90
43143;DHT22;28750;59.842;17.584;2023-09-19T14:14:41;14.10;99.90
43143;DHT22;28750;59.842;17.584;2023-09-19T14:17:11;14.00;99.90
43143;DHT22;28750;59.842;17.584;2023-09-19T14:19:41;13.90;99.90
43143;DHT22;28750;59.842;17.584;2023-09-19T14:22:10;13.80;99.90
43143;DHT22;28750;59.842;17.584;2023-09-19T14:24:37;13.90;99.90
43143;DHT22;28750;59.842;17.584;2023-09-19T14:27:06;13.90;99.90
43143;DHT22;28750;59.842;17.584;2023-09-19T14:29:35;13.80;99.90
43143;DHT22;28750;59.842;17.584;2023-09-19T14:32:02;13.90;67.70
43143;DHT22;28750;59.842;17.584;2023-09-19T14:34:29;14.00;1.00
43143;DHT22;28750;59.842;17.584;2023-09-19T14:36:56;13.90;35.40
43143;DHT22;28750;59.842;17.584;2023-09-19T14:39:24;13.90;76.90
43143;DHT22;28750;59.842;17.584;2023-09-19T14:41:51;13.80;99.90
43143;DHT22;28750;59.842;17.584;2023-09-19T14:44:18;14.00;80.30
43143;DHT22;28750;59.842;17.584;2023-09-19T14:46:45;14.00;99.90
43143;DHT22;28750;59.842;17.584;2023-09-19T14:49:13;13.90;99.90
43143;DHT22;28750;59.842;17.584;2023-09-19T14:51:42;14.10;99.90
43143;DHT22;28750;59.842;17.584;2023-09-19T14:54:09;14.10;1.00
43143;DHT22;28750;59.842;17.584;2023-09-19T14:56:37;14.20;99.90
43143;DHT22;28750;59.842;17.584;2023-09-19T14:59:04;14.10;99.90
43143;DHT22;28750;59.842;17.584;2023-09-19T15:01:32;14.20;1.00
43143;DHT22;28750;59.842;17.584;2023-09-19T15:03:59;14.50;99.90
43143;DHT22;28750;59.842;17.584;2023-09-19T15:06:27;14.40;99.90
43143;DHT22;28750;59.842;17.584;2023-09-19T15:08:54;14.30;99.90
43143;DHT22;28750;59.842;17.584;2023-09-19T15:11:21;14.40;1.00
43143;DHT22;28750;59.842;17.584;2023-09-19T15:13:51;14.40;99.90
43143;DHT22;28750;59.842;17.584;2023-09-19T15:16:19;14.40;99.90
43143;DHT22;28750;59.842;17.584;2023-09-19T15:18:46;14.50;1.00
43143;DHT22;28750;59.842;17.584;2023-09-19T15:21:14;14.40;24.00
43143;DHT22;28750;59.842;17.584;2023-09-19T15:23:43;14.40;1.00
43143;DHT22;28750;59.842;17.584;2023-09-19T15:26:13;14.30;99.90
43143;DHT22;28750;59.842;17.584;2023-09-19T15:28:42;14.20;99.90
43143;DHT22;28750;59.842;17.584;2023-09-19T15:31:12;14.30;28.70
43143;DHT22;28750;59.842;17.584;2023-09-19T15:33:39;14.40;99.90
43143;DHT22;28750;59.842;17.584;2023-09-19T15:36:11;14.50;99.90
43143;DHT22;28750;59.842;17.584;2023-09-19T15:41:35;14.30;99.90
43143;DHT22;28750;59.842;17.584;2023-09-19T15:44:04;14.40;99.90
43143;DHT22;28750;59.842;17.584;2023-09-19T15:46:32;14.20;99.90
43143;DHT22;28750;59.842;17.584;2023-09-19T15:49:01;14.10;99.90
43143;DHT22;28750;59.842;17.584;2023-09-19T15:51:28;14.20;1.00
43143;DHT22;28750;59.842;17.584;2023-09-19T15:53:56;14.20;1.00
43143;DHT22;28750;59.842;17.584;2023-09-19T15:56:25;14.00;99.90
43143;DHT22;28750;59.842;17.584;2023-09-19T15:58:54;14.00;99.90
43143;DHT22;28750;59.842;17.584;2023-09-19T16:01:23;14.00;99.90
43143;DHT22;28750;59.842;17.584;2023-09-19T16:03:52;14.00;99.90
43143;DHT22;28750;59.842;17.584;2023-09-19T16:06:28;13.90;1.00
43143;DHT22;28750;59.842;17.584;2023-09-19T16:08:59;13.90;1.00
43143;DHT22;28750;59.842;17.584;2023-09-19T16:11:31;13.80;1.00
43143;DHT22;28750;59.842;17.584;2023-09-19T16:13:58;13.90;3.20
43143;DHT22;28750;59.842;17.584;2023-09-19T16:16:27;13.80;99.90
43143;DHT22;28750;59.842;17.584;2023-09-19T16:19:02;13.80;99.90
43143;DHT22;28750;59.842;17.584;2023-09-19T16:21:32;13.80;99.90
43143;DHT22;28750;59.842;17.584;2023-09-19T16:24:00;13.90;99.90
43143;DHT22;28750;59.842;17.584;2023-09-19T16:29:49;13.70;99.90
43143;DHT22;28750;59.842;17.584;2023-09-19T16:32:17;13.70;99.90
43143;DHT22;28750;59.842;17.584;2023-09-19T16:34:45;13.60;99.90